Time;durP1;ratioP1;P1;durP2;ratioP2;P2;SDS_P1;SDS_P2;PMS_P1;PMS_P2;Temp;Humidity;BMP_temperature;BMP_pressure;BME280_temperature;BME280_humidity;BME280_pressure;Samples;Min_cycle;Max_cycle;Signal;HPM_P1;HPM_P2
2023/12/21 00:01:47;;;;;;;;;;;;;;;-140.72;100.00;60739.31;5044093;28;19929;-73
2023/12/21 00:04:12;;;;;;;;;;;;;;;-140.72;100.00;60739.31;5052539;28;19924;-73
2023/12/21 00:06:37;;;;;;;;;;;;;;;-140.72;100.00;60775.91;5034950;28;19917;-74
2023/12/21 00:09:06;;;;;;;;;;;;;;;-140.72;100.00;60739.31;5044726;28;20478;-73
2023/12/21 00:11:31;;;;;;;;;;;;;;;-140.72;100.00;60775.91;5021554;28;19990;-73
2023/12/21 00:13:56;;;;;;;;;;;;;;;-140.72;100.00;60757.63;5017579;28;20375;-73
2023/12/21 00:16:22;;;;;;;;;;;;;;;-140.72;100.00;60784.06;5050077;28;20285;-73
2023/12/21 00:18:47;;;;;;;;;;;;;;;-140.72;100.00;60788.13;5039648;28;19924;-74
2023/12/21 00:21:12;;;;;;;;;;;;;;;-140.72;100.00;60779.97;5043152;28;19936;-73
2023/12/21 00:23:37;;;;;;;;;;;;;;;-140.72;100.00;60777.94;5069931;28;19951;-73
2023/12/21 00:26:03;;;;;;;;;;;;;;;-140.72;100.00;60765.75;5046579;28;19921;-74
2023/12/21 00:28:28;;;;;;;;;;;;;;;-140.72;100.00;60747.44;5043888;28;19989;-73
2023/12/21 00:30:53;;;;;;;;;;;;;;;-140.72;100.00;60757.63;5057040;28;19967;-74
2023/12/21 00:33:18;;;;;;;;;;;;;;;-140.72;100.00;60779.97;5049371;28;19924;-73
2023/12/21 00:35:44;;;;;;;;;;;;;;;-140.72;100.00;60771.84;5059551;28;19928;-75
2023/12/21 00:38:09;;;;;;;;;;;;;;;-140.72;100.00;60773.88;5055219;28;19940;-75
2023/12/21 00:40:34;;;;;;;;;;;;;;;-140.72;100.00;60767.78;5053481;28;20304;-75
2023/12/21 00:43:00;;;;;;;;;;;;;;;-140.72;100.00;60775.91;5045714;28;20342;-75
2023/12/21 00:45:25;;;;;;;;;;;;;;;-140.72;100.00;60747.44;5044413;28;19921;-75
2023/12/21 00:47:50;;;;;;;;;;;;;;;-140.72;100.00;60765.75;5065068;28;20367;-75
2023/12/21 00:50:16;;;;;;;;;;;;;;;-140.72;100.00;60804.38;5043428;28;20521;-75
2023/12/21 00:52:41;;;;;;;;;;;;;;;-140.72;100.00;60826.75;5039445;28;19932;-74
2023/12/21 00:55:07;;;;;;;;;;;;;;;-140.72;100.00;60788.13;5054493;28;19960;-74
2023/12/21 00:57:32;;;;;;;;;;;;;;;-140.72;100.00;60767.78;5052714;28;19974;-75
2023/12/21 00:59:57;;;;;;;;;;;;;;;-140.72;100.00;60822.69;5039004;28;19928;-75
2023/12/21 01:02:22;;;;;;;;;;;;;;;-140.72;100.00;60812.53;5067990;28;19927;-74
2023/12/21 01:04:48;;;;;;;;;;;;;;;-140.72;100.00;60804.38;5063408;28;19921;-75
2023/12/21 01:07:13;;;;;;;;;;;;;;;-140.72;100.00;60792.19;5038549;28;19921;-75
2023/12/21 01:09:38;;;;;;;;;;;;;;;-140.72;100.00;60804.38;5036623;28;20085;-75
2023/12/21 01:12:05;;;;;;;;;;;;;;;-140.72;100.00;60824.72;5068075;28;19929;-75
2023/12/21 01:14:31;;;;;;;;;;;;;;;-140.72;100.00;60802.34;5047078;28;19920;-75
2023/12/21 01:16:56;;;;;;;;;;;;;;;-140.72;100.00;60830.81;5054627;28;19928;-75
2023/12/21 01:19:21;;;;;;;;;;;;;;;-140.72;100.00;60836.91;5054547;28;20397;-75
2023/12/21 01:21:46;;;;;;;;;;;;;;;-140.72;100.00;60855.22;5055936;28;20366;-75
2023/12/21 01:24:12;;;;;;;;;;;;;;;-140.72;100.00;60804.38;5064485;28;20396;-75
2023/12/21 01:26:37;;;;;;;;;;;;;;;-140.72;100.00;60784.06;5039459;28;19925;-75
2023/12/21 01:29:02;;;;;;;;;;;;;;;-140.72;100.00;60792.19;5068071;28;20362;-75
2023/12/21 01:31:27;;;;;;;;;;;;;;;-140.72;100.00;60832.84;5056284;28;19928;-75
2023/12/21 01:33:53;;;;;;;;;;;;;;;-140.72;100.00;60800.31;5044028;28;19932;-75
2023/12/21 01:36:18;;;;;;;;;;;;;;;-140.72;100.00;60782.00;5062298;28;20011;-74
2023/12/21 01:38:43;;;;;;;;;;;;;;;-140.72;100.00;60773.88;5060613;28;20011;-74
2023/12/21 01:41:08;;;;;;;;;;;;;;;-140.72;100.00;60771.84;5043559;28;19925;-75
2023/12/21 01:43:34;;;;;;;;;;;;;;;-140.72;100.00;60769.81;5059078;28;19928;-75
2023/12/21 01:46:00;;;;;;;;;;;;;;;-140.72;100.00;60771.84;5061813;28;19932;-75
2023/12/21 01:48:27;;;;;;;;;;;;;;;-140.72;100.00;60757.63;5053112;28;19925;-75
2023/12/21 01:50:52;;;;;;;;;;;;;;;-140.72;100.00;60741.34;5058387;28;19943;-75
2023/12/21 01:53:18;;;;;;;;;;;;;;;-140.72;100.00;60723.03;5059902;28;20370;-74
2023/12/21 01:55:44;;;;;;;;;;;;;;;-140.72;100.00;60743.38;5057651;28;19974;-75
2023/12/21 01:58:10;;;;;;;;;;;;;;;-140.72;100.00;60718.97;5061534;28;20002;-75
2023/12/21 02:00:35;;;;;;;;;;;;;;;-140.72;100.00;60708.81;5057023;28;19920;-75
2023/12/21 02:03:01;;;;;;;;;;;;;;;-140.72;100.00;60708.81;5056406;28;19987;-75
2023/12/21 02:05:26;;;;;;;;;;;;;;;-140.72;100.00;60700.69;5060929;28;20370;-75
2023/12/21 02:07:51;;;;;;;;;;;;;;;-140.72;100.00;60676.28;5082098;28;19921;-75
2023/12/21 02:10:16;;;;;;;;;;;;;;;-140.72;100.00;60686.44;5055000;28;19950;-75
2023/12/21 02:12:42;;;;;;;;;;;;;;;-140.72;100.00;60692.53;5053813;28;20359;-74
2023/12/21 02:15:07;;;;;;;;;;;;;;;-140.72;100.00;60692.53;5064415;28;19920;-75
2023/12/21 02:17:33;;;;;;;;;;;;;;;-140.72;100.00;60714.91;5042068;28;20400;-75
2023/12/21 02:19:59;;;;;;;;;;;;;;;-140.72;100.00;60698.66;5065650;28;20334;-75
2023/12/21 02:22:26;;;;;;;;;;;;;;;-140.72;100.00;60727.13;5054137;28;20078;-75
2023/12/21 02:24:51;;;;;;;;;;;;;;;-140.72;100.00;60714.91;5053604;28;19956;-75
2023/12/21 02:27:17;;;;;;;;;;;;;;;-140.72;100.00;60729.16;5053934;28;19994;-74
2023/12/21 02:29:42;;;;;;;;;;;;;;;-140.72;100.00;60718.97;5062700;28;19955;-75
2023/12/21 02:32:07;;;;;;;;;;;;;;;-140.72;100.00;60716.94;5043003;28;19921;-75
2023/12/21 02:34:32;;;;;;;;;;;;;;;-140.72;100.00;60731.19;5043454;28;20027;-75
2023/12/21 02:36:58;;;;;;;;;;;;;;;-140.72;100.00;60751.50;5055158;28;19960;-75
2023/12/21 02:39:23;;;;;;;;;;;;;;;-140.72;100.00;60759.66;5042017;28;20010;-74
2023/12/21 02:41:51;;;;;;;;;;;;;;;-140.72;100.00;60751.50;5052936;28;19962;-75
2023/12/21 02:44:16;;;;;;;;;;;;;;;-140.72;100.00;60739.31;5049477;28;19960;-75
2023/12/21 02:46:41;;;;;;;;;;;;;;;-140.72;100.00;60765.75;5056842;28;19959;-74
2023/12/21 02:49:07;;;;;;;;;;;;;;;-140.72;100.00;60765.75;5058946;28;19959;-74
2023/12/21 02:51:32;;;;;;;;;;;;;;;-140.72;100.00;60716.94;5052532;28;19956;-74
2023/12/21 02:53:57;;;;;;;;;;;;;;;-140.72;100.00;60755.59;5055032;28;20311;-75
2023/12/21 02:56:23;;;;;;;;;;;;;;;-140.72;100.00;60757.63;5041746;28;20236;-75
2023/12/21 02:58:48;;;;;;;;;;;;;;;-140.72;100.00;60727.13;5052746;28;19974;-75
2023/12/21 03:01:13;;;;;;;;;;;;;;;-140.72;100.00;60753.56;5034113;28;19991;-75
2023/12/21 03:03:38;;;;;;;;;;;;;;;-140.72;100.00;60784.06;5059826;28;19957;-75
2023/12/21 03:06:04;;;;;;;;;;;;;;;-140.72;100.00;60816.59;5058090;28;20044;-75
2023/12/21 03:08:29;;;;;;;;;;;;;;;-140.72;100.00;60830.81;5043210;28;19952;-75
2023/12/21 03:10:54;;;;;;;;;;;;;;;-140.72;100.00;60875.56;5054655;28;20361;-75
2023/12/21 03:13:19;;;;;;;;;;;;;;;-140.72;100.00;60869.44;5041712;28;20343;-75
2023/12/21 03:15:44;;;;;;;;;;;;;;;-140.72;100.00;60887.75;5039833;28;20312;-74
2023/12/21 03:18:10;;;;;;;;;;;;;;;-140.72;100.00;60918.25;5047415;28;20370;-74
2023/12/21 03:20:35;;;;;;;;;;;;;;;-140.72;100.00;60926.38;5049261;28;20322;-75
2023/12/21 03:23:01;;;;;;;;;;;;;;;-140.72;100.00;60948.75;5063151;28;19976;-74
2023/12/21 03:25:27;;;;;;;;;;;;;;;-140.72;100.00;60928.44;5056362;28;19924;-75
2023/12/21 03:27:52;;;;;;;;;;;;;;;-140.72;100.00;60952.81;5056025;28;19921;-75
2023/12/21 03:30:17;;;;;;;;;;;;;;;-140.72;100.00;60930.47;5062881;28;19981;-74
2023/12/21 03:32:42;;;;;;;;;;;;;;;-140.72;100.00;60971.13;5036955;28;20005;-74
2023/12/21 03:35:08;;;;;;;;;;;;;;;-140.72;100.00;60946.72;5056856;28;19925;-74
2023/12/21 03:37:33;;;;;;;;;;;;;;;-140.72;100.00;60918.25;5053985;28;19964;-75
2023/12/21 03:39:58;;;;;;;;;;;;;;;-140.72;100.00;60932.50;5057749;28;19932;-74
2023/12/21 03:42:24;;;;;;;;;;;;;;;-140.72;100.00;60975.19;5062426;28;19940;-74
2023/12/21 03:44:49;;;;;;;;;;;;;;;-140.72;100.00;60975.19;5053040;28;19924;-74
2023/12/21 03:47:14;;;;;;;;;;;;;;;-140.72;100.00;60950.78;5058602;28;20063;-74
2023/12/21 03:49:40;;;;;;;;;;;;;;;-140.72;100.00;60975.19;5070114;28;19925;-74
2023/12/21 03:52:06;;;;;;;;;;;;;;;-140.72;100.00;60981.28;5066708;28;19966;-74
2023/12/21 03:54:31;;;;;;;;;;;;;;;-140.72;100.00;61007.72;5034506;28;19921;-74
2023/12/21 03:56:56;;;;;;;;;;;;;;;-140.72;100.00;61028.06;5059139;28;19925;-74
2023/12/21 03:59:21;;;;;;;;;;;;;;;-140.72;100.00;61007.72;5058753;28;20041;-74
2023/12/21 04:01:47;;;;;;;;;;;;;;;-140.72;100.00;60969.09;5054529;28;19928;-74
2023/12/21 04:04:12;;;;;;;;;;;;;;;-140.72;100.00;60965.03;5069289;28;19943;-74
2023/12/21 04:06:37;;;;;;;;;;;;;;;-140.72;100.00;60914.19;5065376;28;20439;-74
2023/12/21 04:09:02;;;;;;;;;;;;;;;-140.72;100.00;60936.56;5054540;28;19921;-74
2023/12/21 04:11:28;;;;;;;;;;;;;;;-140.72;100.00;60895.88;5059802;28;21395;-74
2023/12/21 04:13:54;;;;;;;;;;;;;;;-140.72;100.00;60908.09;5062309;28;19925;-74
2023/12/21 04:16:19;;;;;;;;;;;;;;;-140.72;100.00;60877.59;5059352;28;19928;-74
2023/12/21 04:18:44;;;;;;;;;;;;;;;-140.72;100.00;60861.31;5063641;28;19964;-74
2023/12/21 04:21:09;;;;;;;;;;;;;;;-140.72;100.00;60906.06;5066757;28;20286;-74
2023/12/21 04:23:35;;;;;;;;;;;;;;;-140.72;100.00;60873.53;5042557;28;19978;-74
2023/12/21 04:26:00;;;;;;;;;;;;;;;-140.72;100.00;60897.91;5057913;28;19955;-74
2023/12/21 04:28:25;;;;;;;;;;;;;;;-140.72;100.00;60877.59;5067920;28;20335;-74
2023/12/21 04:30:50;;;;;;;;;;;;;;;-140.72;100.00;60849.13;5066133;28;20397;-74
2023/12/21 04:33:16;;;;;;;;;;;;;;;-140.72;100.00;60867.41;5047821;28;19978;-74
2023/12/21 04:35:44;;;;;;;;;;;;;;;-140.72;100.00;60840.97;5059894;28;19974;-74
2023/12/21 04:38:10;;;;;;;;;;;;;;;-140.72;100.00;60869.44;5063309;28;19924;-74
2023/12/21 04:40:35;;;;;;;;;;;;;;;-140.72;100.00;60863.34;5046274;28;19927;-74
2023/12/21 04:43:00;;;;;;;;;;;;;;;-140.72;100.00;60883.69;5061635;28;19959;-74
2023/12/21 04:45:25;;;;;;;;;;;;;;;-140.72;100.00;60885.72;5044021;28;19978;-75
2023/12/21 04:47:51;;;;;;;;;;;;;;;-140.72;100.00;60932.50;5059799;28;19956;-74
2023/12/21 04:50:16;;;;;;;;;;;;;;;-140.72;100.00;60960.97;5061172;28;19921;-74
2023/12/21 04:52:41;;;;;;;;;;;;;;;-140.72;100.00;61038.22;5064114;28;20335;-74
2023/12/21 04:55:07;;;;;;;;;;;;;;;-140.72;100.00;61152.13;5057654;28;19971;-74
2023/12/21 04:57:32;;;;;;;;;;;;;;;-140.72;100.00;61304.63;5059112;28;19921;-74
2023/12/21 04:59:58;;;;;;;;;;;;;;;-140.72;100.00;61361.59;5064508;28;20043;-74
2023/12/21 05:02:23;;;;;;;;;;;;;;;-140.72;100.00;61463.28;5056986;28;19931;-74
2023/12/21 05:04:48;;;;;;;;;;;;;;;-140.72;100.00;61615.81;5054762;28;20094;-74
2023/12/21 05:07:13;;;;;;;;;;;;;;;-140.72;100.00;61664.63;5058127;28;19921;-74
2023/12/21 05:09:38;;;;;;;;;;;;;;;-140.72;100.00;61723.59;5046090;28;19924;-74
2023/12/21 05:12:04;;;;;;;;;;;;;;;-140.72;100.00;61768.34;5044198;28;19920;-74
2023/12/21 05:14:29;;;;;;;;;;;;;;;-140.72;100.00;61800.88;5058748;28;19986;-74
2023/12/21 05:16:54;;;;;;;;;;;;;;;-140.72;100.00;61800.88;5045354;28;19921;-74
2023/12/21 05:19:19;;;;;;;;;;;;;;;-140.72;100.00;61880.22;5065683;28;19935;-73
2023/12/21 05:21:45;;;;;;;;;;;;;;;-140.72;100.00;61939.19;5055707;28;19921;-73
2023/12/21 05:24:10;;;;;;;;;;;;;;;-140.72;100.00;61996.16;5056581;28;19921;-74
2023/12/21 05:26:35;;;;;;;;;;;;;;;-140.72;100.00;62065.31;5053788;28;20028;-74
2023/12/21 05:29:02;;;;;;;;;;;;;;;-140.72;100.00;62128.38;5056346;28;19967;-74
2023/12/21 05:31:27;;;;;;;;;;;;;;;-140.72;100.00;62209.72;5081271;28;19989;-73
2023/12/21 05:33:52;;;;;;;;;;;;;;;-140.72;100.00;62291.09;5044821;28;20338;-73
2023/12/21 05:36:21;;;;;;;;;;;;;;;-140.72;100.00;62390.78;5036568;28;19917;-74
2023/12/21 05:38:47;;;;;;;;;;;;;;;-140.72;100.00;62472.13;5068222;28;19920;-76
2023/12/21 05:41:12;;;;;;;;;;;;;;;-140.72;100.00;62561.66;5061773;28;19920;-74
2023/12/21 05:43:37;;;;;;;;;;;;;;;-140.72;100.00;62622.69;5060610;28;19920;-74
2023/12/21 05:46:04;;;;;;;;;;;;;;;-140.72;100.00;62736.59;5065645;28;19915;-74
2023/12/21 05:48:29;;;;;;;;;;;;;;;-140.72;100.00;62791.53;5057404;28;19920;-74
2023/12/21 05:50:54;;;;;;;;;;;;;;;-140.72;100.00;62868.84;5042470;28;20102;-75
2023/12/21 05:53:19;;;;;;;;;;;;;;;-140.72;100.00;62854.59;5054800;28;20362;-74
2023/12/21 05:55:44;;;;;;;;;;;;;;;-140.72;100.00;62903.44;5038302;28;19924;-74
2023/12/21 05:58:10;;;;;;;;;;;;;;;-140.72;100.00;62925.81;5059892;28;20023;-74
2023/12/21 06:00:37;;;;;;;;;;;;;;;-140.72;100.00;62964.47;5040170;28;19964;-74
2023/12/21 06:03:02;;;;;;;;;;;;;;;-140.72;100.00;62978.72;5067914;28;19928;-75
2023/12/21 06:05:27;;;;;;;;;;;;;;;-140.72;100.00;62958.38;5057247;28;19932;-73
2023/12/21 06:07:52;;;;;;;;;;;;;;;-140.72;100.00;62948.19;5062542;28;19970;-74
2023/12/21 06:10:18;;;;;;;;;;;;;;;-140.72;100.00;62946.16;5056507;28;19920;-74
2023/12/21 06:12:43;;;;;;;;;;;;;;;-140.72;100.00;62889.19;5051411;28;19920;-75
2023/12/21 06:15:08;;;;;;;;;;;;;;;-140.72;100.00;62805.78;5047194;28;20008;-74
2023/12/21 06:17:33;;;;;;;;;;;;;;;-140.72;100.00;62756.94;5054234;28;19921;-74
2023/12/21 06:19:59;;;;;;;;;;;;;;;-140.72;100.00;62673.53;5057410;28;20051;-74
2023/12/21 06:22:24;;;;;;;;;;;;;;;-140.72;100.00;62596.22;5058540;28;20082;-74
2023/12/21 06:24:49;;;;;;;;;;;;;;;-140.72;100.00;62492.47;5056890;28;19944;-75
2023/12/21 06:27:15;;;;;;;;;;;;;;;-140.72;100.00;62378.56;5033870;28;19928;-75
2023/12/21 06:29:42;;;;;;;;;;;;;;;-140.72;100.00;62256.50;5038420;28;19921;-76
2023/12/21 06:32:07;;;;;;;;;;;;;;;-140.72;100.00;62138.53;5061357;28;19946;-74
2023/12/21 06:34:32;;;;;;;;;;;;;;;-140.72;100.00;62024.63;5046104;28;20343;-74
2023/12/21 06:36:59;;;;;;;;;;;;;;;-140.72;100.00;61890.38;5053190;28;19928;-74
2023/12/21 06:39:24;;;;;;;;;;;;;;;-140.72;100.00;61794.78;5042330;28;19921;-73
2023/12/21 06:41:49;;;;;;;;;;;;;;;-140.72;100.00;61687.00;5042465;28;19968;-73
2023/12/21 06:44:14;;;;;;;;;;;;;;;-140.72;100.00;61613.78;5044946;28;19917;-74
2023/12/21 06:46:40;;;;;;;;;;;;;;;-140.72;100.00;61501.91;5041208;28;19995;-74
2023/12/21 06:49:05;;;;;;;;;;;;;;;-140.72;100.00;61369.72;5053541;28;19927;-75
2023/12/21 06:51:30;;;;;;;;;;;;;;;-140.72;100.00;61329.03;5046145;28;19928;-74
2023/12/21 06:53:55;;;;;;;;;;;;;;;-140.72;100.00;61298.53;5040940;28;19921;-75
2023/12/21 06:56:21;;;;;;;;;;;;;;;-140.72;100.00;61182.63;5038310;28;19970;-74
2023/12/21 06:58:46;;;;;;;;;;;;;;;-140.72;100.00;61141.94;5059986;28;19980;-75
2023/12/21 07:01:11;;;;;;;;;;;;;;;-140.72;100.00;61078.91;5053727;28;19983;-74
2023/12/21 07:03:37;;;;;;;;;;;;;;;-140.72;100.00;61032.13;5042519;28;20027;-74
2023/12/21 07:06:02;;;;;;;;;;;;;;;-140.72;100.00;61099.25;5042576;28;19921;-74
2023/12/21 07:08:28;;;;;;;;;;;;;;;-140.72;100.00;61148.03;5046336;28;19929;-74
2023/12/21 07:10:54;;;;;;;;;;;;;;;-140.72;100.00;61263.97;5040217;28;19925;-75
2023/12/21 07:13:19;;;;;;;;;;;;;;;-140.72;100.00;61322.94;5046696;28;19924;-74
2023/12/21 07:15:45;;;;;;;;;;;;;;;-140.72;100.00;61434.78;5040952;28;20035;-75
2023/12/21 07:18:10;;;;;;;;;;;;;;;-140.72;100.00;61481.56;5056295;28;19924;-75
2023/12/21 07:20:35;;;;;;;;;;;;;;;-140.72;100.00;61601.56;5036123;28;19955;-74
2023/12/21 07:23:00;;;;;;;;;;;;;;;-140.72;100.00;61737.84;5059349;28;19956;-74
2023/12/21 07:25:26;;;;;;;;;;;;;;;-140.72;100.00;61821.22;5038336;28;19924;-74
2023/12/21 07:27:51;;;;;;;;;;;;;;;-140.72;100.00;61914.78;5046989;28;19917;-74
2023/12/21 07:30:17;;;;;;;;;;;;;;;-140.72;100.00;62000.22;5046872;28;19999;-74
2023/12/21 07:32:42;;;;;;;;;;;;;;;-140.72;100.00;62085.66;5050046;28;19917;-74
2023/12/21 07:35:07;;;;;;;;;;;;;;;-140.72;100.00;62457.91;5046030;28;19917;-74
2023/12/21 07:37:33;;;;;;;;;;;;;;;-140.72;100.00;63080.44;5039595;28;20648;-74
2023/12/21 07:39:59;;;;;;;;;;;;;;;-140.72;100.00;63200.47;5049350;28;20382;-74
2023/12/21 07:42:24;;;;;;;;;;;;;;;-140.72;100.00;63200.47;5053287;28;20011;-75
2023/12/21 07:44:49;;;;;;;;;;;;;;;-140.72;100.00;63161.81;5050443;28;19921;-74
2023/12/21 07:47:14;;;;;;;;;;;;;;;-140.72;100.00;63245.25;5045848;28;19921;-74
2023/12/21 07:49:39;;;;;;;;;;;;;;;-140.72;100.00;63226.94;5045552;28;19973;-74
2023/12/21 07:52:05;;;;;;;;;;;;;;;-140.72;100.00;63251.34;5048853;28;19921;-73
2023/12/21 07:54:30;;;;;;;;;;;;;;;-140.72;100.00;63281.88;5054634;28;19956;-73
2023/12/21 07:56:55;;;;;;;;;;;;;;;-140.72;100.00;63241.16;5039576;28;19921;-74
2023/12/21 07:59:20;;;;;;;;;;;;;;;-140.72;100.00;63237.09;5047978;28;19928;-74
2023/12/21 08:01:49;;;;;;;;;;;;;;;-140.72;100.00;63208.63;5050749;28;19940;-74
2023/12/21 08:04:16;;;;;;;;;;;;;;;-140.72;100.00;63255.41;5040748;28;19924;-73
2023/12/21 08:06:41;;;;;;;;;;;;;;;-140.72;100.00;63196.41;5035280;28;19925;-74
2023/12/21 08:09:06;;;;;;;;;;;;;;;-140.72;100.00;63169.97;5055872;28;20432;-74
2023/12/21 08:11:32;;;;;;;;;;;;;;;-140.72;100.00;63153.69;5053745;28;20362;-74
2023/12/21 08:13:57;;;;;;;;;;;;;;;-140.72;100.00;63094.69;5043540;28;19917;-74
2023/12/21 08:16:22;;;;;;;;;;;;;;;-140.72;100.00;63027.53;5052312;28;19975;-73
2023/12/21 08:18:47;;;;;;;;;;;;;;;-140.72;100.00;62988.88;5052169;28;19960;-73
2023/12/21 08:21:13;;;;;;;;;;;;;;;-140.72;100.00;62897.31;5045025;28;19928;-73
2023/12/21 08:23:38;;;;;;;;;;;;;;;-140.72;100.00;62822.06;5040445;28;19936;-73
2023/12/21 08:26:04;;;;;;;;;;;;;;;-140.72;100.00;62704.06;5027643;28;19920;-74
2023/12/21 08:28:30;;;;;;;;;;;;;;;-140.72;100.00;62669.47;5053629;28;19990;-73
2023/12/21 08:30:56;;;;;;;;;;;;;;;-140.72;100.00;62594.19;5041862;28;20012;-74
2023/12/21 08:33:21;;;;;;;;;;;;;;;-140.72;100.00;62423.31;5044811;28;19978;-74
2023/12/21 08:35:46;;;;;;;;;;;;;;;-140.72;100.00;62319.56;5052251;28;20036;-73
2023/12/21 08:38:12;;;;;;;;;;;;;;;-140.72;100.00;62236.16;5033636;28;19921;-73
2023/12/21 08:40:37;;;;;;;;;;;;;;;-140.72;100.00;62146.66;5050760;28;20370;-74
2023/12/21 08:43:02;;;;;;;;;;;;;;;-140.72;100.00;62022.59;5034999;28;19924;-73
2023/12/21 08:45:27;;;;;;;;;;;;;;;-140.72;100.00;61963.59;5051038;28;19916;-73
2023/12/21 08:47:54;;;;;;;;;;;;;;;-140.72;100.00;61931.06;5045348;28;19927;-74
2023/12/21 08:50:19;;;;;;;;;;;;;;;-140.72;100.00;61853.78;5049498;28;19968;-73
2023/12/21 08:52:45;;;;;;;;;;;;;;;-140.72;100.00;61874.09;5051290;28;19943;-73
2023/12/21 08:55:10;;;;;;;;;;;;;;;-140.72;100.00;61817.16;5047595;28;20000;-74
2023/12/21 08:57:38;;;;;;;;;;;;;;;-140.72;100.00;61772.41;5047734;28;19974;-74
2023/12/21 09:00:09;;;;;;;;;;;;;;;-140.72;100.00;61691.06;5053675;28;19969;-74
2023/12/21 09:02:35;;;;;;;;;;;;;;;-140.72;100.00;61682.91;5035274;28;20020;-74
2023/12/21 09:05:00;;;;;;;;;;;;;;;-140.72;100.00;61605.63;5024621;28;19999;-75
2023/12/21 09:07:25;;;;;;;;;;;;;;;-140.72;100.00;61560.88;5063891;28;19943;-74
2023/12/21 09:09:51;;;;;;;;;;;;;;;-140.72;100.00;61524.28;5066469;28;19921;-76
2023/12/21 09:12:18;;;;;;;;;;;;;;;-140.72;100.00;61501.91;5065730;28;19936;-76
2023/12/21 09:14:43;;;;;;;;;;;;;;;-140.72;100.00;61475.47;5060478;28;19972;-75
2023/12/21 09:17:09;;;;;;;;;;;;;;;-140.72;100.00;61434.78;5056240;28;19921;-74
2023/12/21 09:19:34;;;;;;;;;;;;;;;-140.72;100.00;61485.63;5059341;28;20067;-74
2023/12/21 09:22:00;;;;;;;;;;;;;;;-140.72;100.00;61475.47;5056966;28;20027;-74
2023/12/21 09:24:25;;;;;;;;;;;;;;;-140.72;100.00;61518.19;5063123;28;19928;-74
2023/12/21 09:26:50;;;;;;;;;;;;;;;-140.72;100.00;61630.03;5054714;28;20359;-74
2023/12/21 09:29:15;;;;;;;;;;;;;;;-140.72;100.00;61664.63;5051902;28;20035;-75
2023/12/21 09:31:41;;;;;;;;;;;;;;;-140.72;100.00;61748.00;5041524;28;19921;-74
2023/12/21 09:34:07;;;;;;;;;;;;;;;-140.72;100.00;61727.66;5036134;28;19925;-74
2023/12/21 09:36:32;;;;;;;;;;;;;;;-140.72;100.00;61750.03;5046502;28;19928;-75
2023/12/21 09:38:58;;;;;;;;;;;;;;;-140.72;100.00;61758.19;5059961;28;19921;-76
2023/12/21 09:41:23;;;;;;;;;;;;;;;-140.72;100.00;61731.72;5054628;28;19925;-75
2023/12/21 09:43:51;;;;;;;;;;;;;;;-140.72;100.00;61766.31;5050743;28;19966;-74
2023/12/21 09:46:17;;;;;;;;;;;;;;;-140.72;100.00;61715.47;5061272;28;19924;-75
2023/12/21 09:48:43;;;;;;;;;;;;;;;-140.72;100.00;61676.81;5051354;28;20541;-74
2023/12/21 09:51:10;;;;;;;;;;;;;;;-140.72;100.00;61666.66;5059421;28;19990;-73
2023/12/21 09:53:35;;;;;;;;;;;;;;;-140.72;100.00;61634.09;5057886;28;19921;-74
2023/12/21 09:56:01;;;;;;;;;;;;;;;-140.72;100.00;61601.56;5050046;28;19928;-76
2023/12/21 09:58:27;;;;;;;;;;;;;;;-140.72;100.00;61552.75;5052976;28;20054;-74
2023/12/21 10:00:52;;;;;;;;;;;;;;;-140.72;100.00;61528.34;5058440;28;19968;-74
2023/12/21 10:03:18;;;;;;;;;;;;;;;-140.72;100.00;61483.59;5059001;28;19924;-74
2023/12/21 10:05:43;;;;;;;;;;;;;;;-140.72;100.00;61457.16;5053303;28;19920;-74
2023/12/21 10:08:09;;;;;;;;;;;;;;;-140.72;100.00;61479.53;5057681;28;19928;-74
2023/12/21 10:10:35;;;;;;;;;;;;;;;-140.72;100.00;61371.75;5046473;28;19960;-73
2023/12/21 10:13:02;;;;;;;;;;;;;;;-140.72;100.00;61416.50;5041601;28;19956;-73
2023/12/21 10:15:30;;;;;;;;;;;;;;;-140.72;100.00;61375.81;5057267;28;19970;-73
2023/12/21 10:17:55;;;;;;;;;;;;;;;-140.72;100.00;61367.69;5060277;28;19921;-73
2023/12/21 10:20:23;;;;;;;;;;;;;;;-140.72;100.00;61343.28;5041107;28;19925;-73
2023/12/21 10:22:48;;;;;;;;;;;;;;;-140.72;100.00;61361.59;5033595;28;19971;-77
2023/12/21 10:25:13;;;;;;;;;;;;;;;-140.72;100.00;61406.31;5038487;28;19924;-76
2023/12/21 10:27:40;;;;;;;;;;;;;;;-140.72;100.00;61467.34;5037161;28;19932;-73
2023/12/21 10:30:06;;;;;;;;;;;;;;;-140.72;100.00;61512.06;5055140;28;20409;-74
2023/12/21 10:32:32;;;;;;;;;;;;;;;-140.72;100.00;61583.25;5057337;28;20023;-74
2023/12/21 10:34:58;;;;;;;;;;;;;;;-140.72;100.00;61699.19;5042674;28;19980;-77
2023/12/21 10:37:24;;;;;;;;;;;;;;;-140.72;100.00;61752.06;5035899;28;20016;-76
2023/12/21 10:39:49;;;;;;;;;;;;;;;-140.72;100.00;61833.44;5041930;28;19925;-76
2023/12/21 10:42:14;;;;;;;;;;;;;;;-140.72;100.00;61918.84;5037771;28;20023;-77
2023/12/21 10:44:43;;;;;;;;;;;;;;;-140.72;100.00;61939.19;5052295;28;20367;-76
2023/12/21 10:47:08;;;;;;;;;;;;;;;-140.72;100.00;62012.41;5059311;28;19921;-74
2023/12/21 10:49:36;;;;;;;;;;;;;;;-140.72;100.00;62114.13;5055587;28;20392;-75
2023/12/21 10:52:03;;;;;;;;;;;;;;;-140.72;100.00;62134.47;5043824;28;19994;-74
2023/12/21 10:54:29;;;;;;;;;;;;;;;-140.72;100.00;62185.31;5054805;28;19928;-84
2023/12/21 10:56:56;;;;;;;;;;;;;;;-140.72;100.00;62207.69;5033078;28;19971;-76
2023/12/21 10:59:22;;;;;;;;;;;;;;;-140.72;100.00;62238.22;5048447;28;19920;-78
2023/12/21 11:01:48;;;;;;;;;;;;;;;-140.72;100.00;62313.47;5043681;28;19924;-73
2023/12/21 11:04:16;;;;;;;;;;;;;;;-140.72;100.00;62313.47;5059530;28;19933;-74
2023/12/21 11:06:41;;;;;;;;;;;;;;;-140.72;100.00;62348.06;5035815;28;20401;-75
2023/12/21 11:09:09;;;;;;;;;;;;;;;-140.72;100.00;62305.34;5040056;28;19920;-75
2023/12/21 11:11:36;;;;;;;;;;;;;;;-140.72;100.00;62291.09;5053653;28;19932;-74
2023/12/21 11:14:01;;;;;;;;;;;;;;;-140.72;100.00;62313.47;5043107;28;19921;-74
2023/12/21 11:16:33;;;;;;;;;;;;;;;-140.72;100.00;62303.31;5052565;28;19921;-74
2023/12/21 11:19:00;;;;;;;;;;;;;;;-140.72;100.00;62252.44;5034265;28;19920;-74
2023/12/21 11:21:26;;;;;;;;;;;;;;;-140.72;100.00;62209.72;5054492;28;20298;-74
2023/12/21 11:23:52;;;;;;;;;;;;;;;-140.72;100.00;62138.53;5050542;28;20413;-74
2023/12/21 11:26:21;;;;;;;;;;;;;;;-140.72;100.00;62071.41;5049772;28;19929;-76
2023/12/21 11:28:47;;;;;;;;;;;;;;;-140.72;100.00;62051.06;5051777;28;19924;-75
2023/12/21 11:31:13;;;;;;;;;;;;;;;-140.72;100.00;61892.41;5052403;28;19929;-75
2023/12/21 11:33:39;;;;;;;;;;;;;;;-140.72;100.00;61821.22;5038849;28;19927;-75
2023/12/21 11:36:04;;;;;;;;;;;;;;;-140.72;100.00;61717.50;5053265;28;19920;-75
2023/12/21 11:38:48;;;;;;;;;;;;;;;-140.72;100.00;61577.16;5038055;28;19969;-75
2023/12/21 11:41:14;;;;;;;;;;;;;;;-140.72;100.00;61467.34;5051594;28;19928;-74
2023/12/21 11:43:40;;;;;;;;;;;;;;;-140.72;100.00;61308.72;5061119;28;20389;-74
2023/12/21 11:46:07;;;;;;;;;;;;;;;-140.72;100.00;61227.34;5049983;28;19928;-76
2023/12/21 11:48:33;;;;;;;;;;;;;;;-140.72;100.00;61154.16;5053851;28;20015;-77
2023/12/21 11:51:02;;;;;;;;;;;;;;;-140.72;100.00;61064.66;5037361;28;20343;-75
2023/12/21 11:53:28;;;;;;;;;;;;;;;-140.72;100.00;61044.34;5032972;28;19960;-75
2023/12/21 11:55:53;;;;;;;;;;;;;;;-140.72;100.00;60997.56;5037536;28;19929;-76
2023/12/21 11:58:19;;;;;;;;;;;;;;;-140.72;100.00;60983.31;5031116;28;20274;-75
2023/12/21 12:00:48;;;;;;;;;;;;;;;-140.72;100.00;60969.09;5034879;28;19993;-74
2023/12/21 12:03:14;;;;;;;;;;;;;;;-140.72;100.00;60981.28;5053703;28;20301;-74
2023/12/21 12:05:39;;;;;;;;;;;;;;;-140.72;100.00;60950.78;5051686;28;20048;-74
2023/12/21 12:08:05;;;;;;;;;;;;;;;-140.72;100.00;60889.78;5037634;28;19917;-74
2023/12/21 12:10:30;;;;;;;;;;;;;;;-140.72;100.00;60873.53;5056786;28;19978;-75